Ashland, North Carolina
Current Conditions -  °F | °C
As of 11:55 AM on Sunday 23 Nov 2014 (Local Time) from KGEV Reporting Station
Moderate Rain Moderate Rain  
Wind Chill: 41°   Ceiling: 200
Heat Index: 41°   Visibility: 4mi
Dew Point: 40°   Wind: 3mph
Humidity: 97%   Direction: 140°SE
Pressure: 30.12"   Gusts: NA
Location:  36.4481°N, 81.6486°W
Report Text: KGEV 231655Z AUTO 14003KT 4SM RA OVC002 05/05 A3012 RMK AO2 T00500046
Loading
Personal Weather Stations






























Interactive Weather Map New forecast layout! Learn more

10-Day Weather Forecast

Advertisements
Track Severe Weather on mobile